KCOS

City of Colorado Springs Municipal Airport

Colorado Springs, Colorado, USA
METAR KCOS 210354Z 15007KT 7SM FEW180 BKN250 17/11 A3033 RMK AO2 SLP207 HZ T01670106 $
Observed Flight Rules
Aug-21 @ 03:54 UTC (17 minutes ago) Visual Flight Rules
Wind Visibility Clouds
150° at 7 knots 7 miles
  • Few at 18,000' AGL
  • Broken at 25,000' AGL
Temperatures Readings
Current 17°C / 63°F
Dewpoint 11°C / 52°F
Humidity 68%
Altimeter 30.33" Hg
Pressure 1020.7 hPa
Elevation 1856
METAR KCOS 210354Z 15007KT 7SM FEW180 BKN250 17/11 A3033 RMK AO2 SLP207 HZ T01670106 $
Observed Flight Rules
Aug-21 @ 03:54 UTC
(17 minutes ago)
VFR
Wind Visibility
150° at 7 knots 7 miles
Clouds
  • Few at 18,000' AGL
  • Broken at 25,000' AGL
Temperature Dewpoint
17°C / 63°F 11°C / 52°F
Humidity Altimeter Pressure
68% 30.33" Hg 1020.7 hPa